createdAt,value
2022-08-01T00:00:26.360Z,7.53
2022-08-01T00:03:27.973Z,7.30
2022-08-01T00:06:30.149Z,8.20
2022-08-01T00:09:32.001Z,6.70
2022-08-01T00:12:33.789Z,6.95
2022-08-01T00:15:35.564Z,7.85
2022-08-01T00:18:37.189Z,7.43
2022-08-01T00:21:40.107Z,8.43
2022-08-01T00:24:53.819Z,7.25
2022-08-01T00:27:55.501Z,6.78
2022-08-01T00:30:57.175Z,7.32
2022-08-01T00:33:58.859Z,8.40
2022-08-01T00:37:00.647Z,7.68
2022-08-01T00:40:02.430Z,8.10
2022-08-01T00:43:04.672Z,6.35
2022-08-01T00:46:06.469Z,7.07
2022-08-01T00:49:10.556Z,7.65
2022-08-01T00:52:13.138Z,7.55
2022-08-01T00:55:15.302Z,6.55
2022-08-01T00:58:17.845Z,6.78
2022-08-01T01:01:21.668Z,5.80
2022-08-01T01:04:23.560Z,7.22
2022-08-01T01:07:50.277Z,4.72
2022-08-01T01:11:05.484Z,5.55
2022-08-01T01:14:14.577Z,4.50
2022-08-01T01:17:31.273Z,5.35
2022-08-01T01:20:45.639Z,5.88
2022-08-01T01:24:04.819Z,5.07
2022-08-01T01:27:19.510Z,5.20
2022-08-01T01:30:26.710Z,5.72
2022-08-01T01:33:32.211Z,4.35
2022-08-01T01:36:34.893Z,4.67
2022-08-01T01:39:39.502Z,5.15
2022-08-01T01:42:47.877Z,5.25
2022-08-01T01:45:52.909Z,6.07
2022-08-01T01:48:57.898Z,5.15
2022-08-01T01:52:02.532Z,4.95
2022-08-01T01:55:08.005Z,4.85
2022-08-01T01:58:14.288Z,5.47
2022-08-01T02:01:17.005Z,6.20
2022-08-01T02:04:43.768Z,4.97
2022-08-01T02:07:46.191Z,5.90
2022-08-01T02:11:12.805Z,6.30
2022-08-01T02:14:16.545Z,5.65
2022-08-01T02:17:21.066Z,4.30
2022-08-01T02:20:23.156Z,4.88
2022-08-01T02:23:28.179Z,5.28
2022-08-01T02:26:31.831Z,6.00
2022-08-01T02:29:58.499Z,5.13
2022-08-01T02:33:05.973Z,4.97
2022-08-01T02:36:31.691Z,6.25
2022-08-01T02:39:32.900Z,4.20
2022-08-01T02:42:38.871Z,5.88
2022-08-01T02:45:44.715Z,4.90
2022-08-01T02:48:48.928Z,5.18
2022-08-01T02:51:53.966Z,5.65
2022-08-01T02:54:57.360Z,5.72
2022-08-01T02:58:00.835Z,5.07
2022-08-01T03:01:03.880Z,4.97
2022-08-01T03:04:08.017Z,4.53
2022-08-01T03:07:11.679Z,7.03
2022-08-01T03:10:17.102Z,6.47
2022-08-01T03:13:19.974Z,7.30
2022-08-01T03:16:25.173Z,5.75
2022-08-01T03:19:29.347Z,5.55
2022-08-01T03:22:34.688Z,6.70
2022-08-01T03:25:40.842Z,6.97
2022-08-01T03:28:45.111Z,5.57
2022-08-01T03:31:48.990Z,4.57
2022-08-01T03:34:50.929Z,6.60
2022-08-01T03:38:15.326Z,4.88
2022-08-01T03:41:22.122Z,6.30
2022-08-01T03:47:32.355Z,4.93
2022-08-01T03:50:35.826Z,4.13
2022-08-01T03:53:42.277Z,4.35
2022-08-01T03:56:47.100Z,6.28
2022-08-01T03:59:50.111Z,5.40
2022-08-01T04:02:52.492Z,5.10
2022-08-01T04:05:54.415Z,4.90
2022-08-01T04:08:58.851Z,6.85
2022-08-01T04:12:01.142Z,6.95
2022-08-01T04:15:11.715Z,5.47
2022-08-01T04:18:13.318Z,5.10
2022-08-01T04:21:18.645Z,8.65
2022-08-01T04:24:23.242Z,8.20
2022-08-01T04:27:48.500Z,5.82
2022-08-01T04:31:01.820Z,6.32
2022-08-01T04:34:06.720Z,7.65
2022-08-01T04:37:13.255Z,6.85
2022-08-01T04:40:16.223Z,6.32
2022-08-01T04:43:20.911Z,7.82
2022-08-01T04:46:23.569Z,6.18
2022-08-01T04:49:25.464Z,12.07
2022-08-01T04:52:37.414Z,6.93
2022-08-01T04:55:39.024Z,8.43
2022-08-01T04:58:42.116Z,7.72
2022-08-01T05:01:43.725Z,8.27
2022-08-01T05:04:46.751Z,8.07
2022-08-01T05:07:48.334Z,6.70
2022-08-01T05:10:50.004Z,7.18
2022-08-01T05:13:52.462Z,5.15
2022-08-01T05:16:54.340Z,5.15
2022-08-01T05:19:56.129Z,4.85
2022-08-01T05:22:58.201Z,5.45
2022-08-01T05:25:59.862Z,4.30
2022-08-01T05:29:01.642Z,5.10
2022-08-01T05:32:04.238Z,5.53
2022-08-01T05:35:06.721Z,4.30
2022-08-01T05:38:08.326Z,5.07
2022-08-01T05:41:15.825Z,3.75
2022-08-01T05:44:17.431Z,3.30
2022-08-01T05:47:19.244Z,4.65
2022-08-01T05:50:20.916Z,4.07
2022-08-01T05:53:22.587Z,4.15
2022-08-01T05:56:24.457Z,4.40
2022-08-01T05:59:26.653Z,5.05
2022-08-01T06:02:28.904Z,5.65
2022-08-01T06:05:30.719Z,4.43
2022-08-01T06:08:32.815Z,4.47
2022-08-01T06:11:34.471Z,4.03
2022-08-01T06:14:36.105Z,4.50
2022-08-01T06:17:37.842Z,5.82
2022-08-01T06:20:39.439Z,4.68
2022-08-01T06:23:42.534Z,5.13
2022-08-01T06:26:44.163Z,4.75
2022-08-01T06:29:53.497Z,5.07
2022-08-01T06:33:00.848Z,5.13
2022-08-01T06:36:02.474Z,4.72
2022-08-01T06:39:04.383Z,4.63
2022-08-01T06:42:06.252Z,5.75
2022-08-01T06:45:12.937Z,5.53
2022-08-01T06:51:19.011Z,3.95
2022-08-01T06:54:20.625Z,3.30
2022-08-01T06:57:22.248Z,5.45
2022-08-01T07:00:25.524Z,3.90
2022-08-01T07:03:54.062Z,3.22
2022-08-01T07:06:49.774Z,1.83
2022-08-01T07:09:51.381Z,1.98
2022-08-01T07:12:54.913Z,2.50
2022-08-01T07:15:56.588Z,3.00
2022-08-01T07:18:58.329Z,3.30
2022-08-01T07:22:00.012Z,2.88
2022-08-01T07:25:01.750Z,5.63
2022-08-01T07:28:03.625Z,2.97
2022-08-01T07:31:05.319Z,3.40
2022-08-01T07:34:08.066Z,3.38
2022-08-01T07:37:09.787Z,2.63
2022-08-01T07:40:12.003Z,3.80
2022-08-01T07:43:14.170Z,3.03
2022-08-01T07:46:16.502Z,3.20
2022-08-01T07:49:18.246Z,3.95
2022-08-01T07:52:20.791Z,3.55
2022-08-01T07:55:22.610Z,3.10
2022-08-01T07:58:24.276Z,3.97
2022-08-01T08:01:25.970Z,3.10
2022-08-01T08:04:28.808Z,4.45
2022-08-01T08:07:30.604Z,3.85
2022-08-01T08:10:32.446Z,5.55
2022-08-01T08:13:34.052Z,3.67
2022-08-01T08:16:35.708Z,3.40
2022-08-01T08:19:39.698Z,3.22
2022-08-01T08:22:41.670Z,3.58
2022-08-01T08:25:43.362Z,3.30
2022-08-01T08:28:45.037Z,3.45
2022-08-01T08:31:52.234Z,3.30
2022-08-01T08:34:54.427Z,4.65
2022-08-01T08:37:56.169Z,2.50
2022-08-01T08:41:00.850Z,3.05
2022-08-01T08:44:09.988Z,2.40
2022-08-01T08:47:19.082Z,3.47
2022-08-01T08:50:22.012Z,1.85
2022-08-01T08:53:24.761Z,3.15
2022-08-01T08:56:38.539Z,2.42
2022-08-01T08:59:40.633Z,1.98
2022-08-01T09:02:44.345Z,3.17
2022-08-01T09:05:46.365Z,2.25
2022-08-01T09:08:48.671Z,2.20
2022-08-01T09:11:56.814Z,3.10
2022-08-01T09:15:00.091Z,2.60
2022-08-01T09:18:01.717Z,2.70
2022-08-01T09:21:09.971Z,2.70
2022-08-01T09:24:16.769Z,2.83
2022-08-01T09:27:24.997Z,2.80
2022-08-01T09:30:26.908Z,3.75
2022-08-01T09:33:51.196Z,2.85
2022-08-01T09:36:57.454Z,4.13
2022-08-01T09:39:59.223Z,2.85
2022-08-01T09:43:14.984Z,2.65
2022-08-01T09:46:17.358Z,2.83
2022-08-01T09:49:50.812Z,2.90
2022-08-01T09:52:57.959Z,2.15
2022-08-01T09:56:13.340Z,1.65
2022-08-01T09:59:16.787Z,1.63
2022-08-01T10:02:40.147Z,2.47
2022-08-01T10:05:43.936Z,2.65
2022-08-01T10:08:51.614Z,1.98
2022-08-01T10:11:53.716Z,4.03
2022-08-01T10:14:59.350Z,3.28
2022-08-01T10:18:04.756Z,3.05
2022-08-01T10:21:57.073Z,2.65
2022-08-01T10:24:42.394Z,2.97
2022-08-01T10:27:46.550Z,2.38
2022-08-01T10:30:49.853Z,2.17
2022-08-01T10:33:53.379Z,2.45
2022-08-01T10:36:55.371Z,4.57
2022-08-01T10:40:27.093Z,2.67
2022-08-01T10:43:21.542Z,2.50
2022-08-01T10:46:24.240Z,2.53
2022-08-01T10:49:31.667Z,2.50
2022-08-01T10:52:39.169Z,3.58
2022-08-01T10:56:08.519Z,8.13
2022-08-01T10:59:11.593Z,8.25
2022-08-01T11:02:46.404Z,5.90
2022-08-01T11:05:53.258Z,9.45
2022-08-01T11:08:55.945Z,5.70
2022-08-01T11:12:08.925Z,6.03
2022-08-01T11:15:16.393Z,8.75
2022-08-01T11:18:32.095Z,8.95
2022-08-01T11:21:59.347Z,7.15
2022-08-01T11:25:03.016Z,7.28
2022-08-01T11:28:28.241Z,6.45
2022-08-01T11:31:37.604Z,8.73
2022-08-01T11:34:56.770Z,6.30
2022-08-01T11:38:25.344Z,5.50
2022-08-01T11:41:38.697Z,5.72
2022-08-01T11:44:59.255Z,6.68
2022-08-01T11:48:01.494Z,5.68
2022-08-01T11:51:03.710Z,5.50
2022-08-01T11:54:05.632Z,5.32
2022-08-01T11:57:10.359Z,4.85
2022-08-01T12:00:15.346Z,9.38
2022-08-01T12:03:33.501Z,6.80
2022-08-01T12:06:35.488Z,6.50
2022-08-01T12:09:37.115Z,5.72
2022-08-01T12:12:44.729Z,6.28
2022-08-01T12:15:47.532Z,8.27
2022-08-01T12:18:49.848Z,9.32
2022-08-01T12:22:08.711Z,7.72
2022-08-01T12:25:11.502Z,7.47
2022-08-01T12:28:15.914Z,6.55
2022-08-01T12:31:17.640Z,5.97
2022-08-01T12:34:26.393Z,6.43
2022-08-01T12:37:28.429Z,7.82
2022-08-01T12:40:32.323Z,6.10
2022-08-01T12:43:35.469Z,6.97
2022-08-01T12:46:39.509Z,10.35
2022-08-01T12:49:46.692Z,7.43
2022-08-01T12:52:49.619Z,6.85
2022-08-01T12:55:59.134Z,8.70
2022-08-01T12:59:01.650Z,6.10
2022-08-01T13:02:09.637Z,5.70
2022-08-01T13:05:12.423Z,7.05
2022-08-01T13:08:16.506Z,5.30
2022-08-01T13:11:19.793Z,6.05
2022-08-01T13:14:30.381Z,7.05
2022-08-01T13:17:40.917Z,6.63
2022-08-01T13:20:42.607Z,4.95
2022-08-01T13:24:10.539Z,5.35
2022-08-01T13:27:24.830Z,6.70
2022-08-01T13:30:26.444Z,6.80
2022-08-01T13:33:40.718Z,6.45
2022-08-01T13:36:48.590Z,8.65
2022-08-01T13:39:51.241Z,6.75
2022-08-01T13:42:53.222Z,9.48
2022-08-01T13:45:54.846Z,9.15
2022-08-01T13:48:56.555Z,8.10
2022-08-01T13:51:59.010Z,8.65
2022-08-01T13:55:02.054Z,6.95
2022-08-01T13:58:03.978Z,9.05
2022-08-01T14:01:06.144Z,7.88
2022-08-01T14:04:07.939Z,8.23
2022-08-01T14:07:14.396Z,8.43
2022-08-01T14:10:19.324Z,6.72
2022-08-01T14:13:23.835Z,8.13
2022-08-01T14:16:25.930Z,9.05
2022-08-01T14:19:38.777Z,6.47
2022-08-01T14:22:41.650Z,8.13
2022-08-01T14:26:01.479Z,6.38
2022-08-01T14:29:05.036Z,6.10
2022-08-01T14:32:07.270Z,6.50
2022-08-01T14:35:09.590Z,6.88
2022-08-01T14:38:11.216Z,6.25
2022-08-01T14:41:13.219Z,6.20
2022-08-01T14:44:14.902Z,7.18
2022-08-01T14:47:21.597Z,6.75
2022-08-01T14:50:25.085Z,6.10
2022-08-01T14:53:26.641Z,4.90
2022-08-01T14:56:28.336Z,7.88
2022-08-01T14:59:30.003Z,8.65
2022-08-01T15:02:31.612Z,6.53
2022-08-01T15:05:33.873Z,6.82
2022-08-01T15:08:36.360Z,6.88
2022-08-01T15:11:38.433Z,7.03
2022-08-01T15:14:48.988Z,9.57
2022-08-01T15:17:52.624Z,6.22
2022-08-01T15:20:54.563Z,6.25
2022-08-01T15:23:56.540Z,9.75
2022-08-01T15:26:58.599Z,9.00
2022-08-01T15:30:00.263Z,7.22
2022-08-01T15:33:01.855Z,8.82
2022-08-01T15:36:03.685Z,5.82
2022-08-01T15:39:05.331Z,6.70
2022-08-01T15:42:10.416Z,7.53
2022-08-01T15:45:37.482Z,8.38
2022-08-01T15:48:39.830Z,8.77
2022-08-01T15:51:42.050Z,4.75
2022-08-01T15:54:43.734Z,6.13
2022-08-01T15:57:45.779Z,5.65
2022-08-01T16:00:47.529Z,5.75
2022-08-01T16:03:49.173Z,4.78
2022-08-01T16:06:51.102Z,6.30
2022-08-01T16:09:52.813Z,7.07
2022-08-01T16:12:54.453Z,4.63
2022-08-01T16:15:56.075Z,6.88
2022-08-01T16:18:57.742Z,7.55
2022-08-01T16:21:59.413Z,6.20
2022-08-01T16:25:01.178Z,4.93
2022-08-01T16:28:02.949Z,5.38
2022-08-01T16:31:15.973Z,6.47
2022-08-01T16:34:26.590Z,7.22
2022-08-01T16:37:28.230Z,6.00
2022-08-01T16:40:29.910Z,4.75
2022-08-01T16:43:31.581Z,7.72
2022-08-01T16:46:33.242Z,6.88
2022-08-01T16:49:34.894Z,6.90
2022-08-01T16:52:41.672Z,5.43
2022-08-01T16:55:50.652Z,5.07
2022-08-01T16:58:52.625Z,6.53
2022-08-01T17:02:00.027Z,4.82
2022-08-01T17:05:07.131Z,5.75
2022-08-01T17:08:11.093Z,6.38
2022-08-01T17:11:13.276Z,6.05
2022-08-01T17:14:15.111Z,4.97
2022-08-01T17:17:17.048Z,6.50
2022-08-01T17:20:18.867Z,7.22
2022-08-01T17:23:20.528Z,6.28
2022-08-01T17:26:22.217Z,5.60
2022-08-01T17:29:24.016Z,7.97
2022-08-01T17:32:25.801Z,5.32
2022-08-01T17:35:28.030Z,4.57
2022-08-01T17:38:29.631Z,6.70
2022-08-01T17:41:31.631Z,4.47
2022-08-01T17:44:33.246Z,4.40
2022-08-01T17:47:50.306Z,7.60
2022-08-01T17:50:53.139Z,6.85
2022-08-01T17:53:57.160Z,5.75
2022-08-01T17:56:59.576Z,5.53
2022-08-01T18:00:01.435Z,7.45
2022-08-01T18:03:08.095Z,5.63
2022-08-01T18:06:13.497Z,8.25
2022-08-01T18:09:15.193Z,7.72
2022-08-01T18:12:17.175Z,6.07
2022-08-01T18:15:24.536Z,8.10
2022-08-01T18:18:33.201Z,7.45
2022-08-01T18:21:39.737Z,7.88
2022-08-01T18:24:44.183Z,4.75
2022-08-01T18:28:30.640Z,7.47
2022-08-01T18:31:08.374Z,7.40
2022-08-01T18:34:10.121Z,6.28
2022-08-01T18:37:14.700Z,5.93
2022-08-01T18:40:22.625Z,5.82
2022-08-01T18:43:25.046Z,8.77
2022-08-01T18:46:27.250Z,5.00
2022-08-01T18:49:29.318Z,5.85
2022-08-01T18:52:32.503Z,5.53
2022-08-01T18:55:34.194Z,6.25
2022-08-01T18:58:36.344Z,4.50
2022-08-01T19:01:40.905Z,7.05
2022-08-01T19:04:43.978Z,5.85
2022-08-01T19:08:04.981Z,7.13
2022-08-01T19:11:07.369Z,6.78
2022-08-01T19:14:09.029Z,5.57
2022-08-01T19:17:10.773Z,7.03
2022-08-01T19:20:12.372Z,5.47
2022-08-01T19:23:32.558Z,6.22
2022-08-01T19:26:36.218Z,6.85
2022-08-01T19:29:39.259Z,5.55
2022-08-01T19:32:43.482Z,5.32
2022-08-01T19:35:46.233Z,6.15
2022-08-01T19:38:48.829Z,6.25
2022-08-01T19:41:51.977Z,7.65
2022-08-01T19:44:54.486Z,9.23
2022-08-01T19:47:57.807Z,12.55
2022-08-01T19:51:02.205Z,25.20
2022-08-01T19:54:06.089Z,8.70
2022-08-01T19:57:09.240Z,6.30
2022-08-01T20:00:23.804Z,7.60
2022-08-01T20:03:32.644Z,8.30
2022-08-01T20:06:35.365Z,6.90
2022-08-01T20:09:40.223Z,6.53
2022-08-01T20:12:42.212Z,7.38
2022-08-01T20:15:45.110Z,8.13
2022-08-01T20:18:47.047Z,5.72
2022-08-01T20:22:03.740Z,7.15
2022-08-01T20:25:06.263Z,7.88
2022-08-01T20:28:12.727Z,8.75
2022-08-01T20:34:22.424Z,7.07
2022-08-01T20:38:05.990Z,6.25
2022-08-01T20:40:49.748Z,5.13
2022-08-01T20:43:56.289Z,6.45
2022-08-01T20:50:27.720Z,7.55
2022-08-01T20:53:43.715Z,9.15
2022-08-01T20:56:54.677Z,5.97
2022-08-01T21:00:04.246Z,4.95
2022-08-01T21:03:16.056Z,5.55
2022-08-01T21:06:22.740Z,7.05
2022-08-01T21:09:26.756Z,6.85
2022-08-01T21:12:49.606Z,6.70
2022-08-01T21:16:07.498Z,8.02
2022-08-01T21:19:26.733Z,7.55
2022-08-01T21:22:53.050Z,6.55
2022-08-01T21:25:58.016Z,6.03
2022-08-01T21:29:02.433Z,8.88
2022-08-01T21:32:12.602Z,7.53
2022-08-01T21:35:16.308Z,9.75
2022-08-01T21:38:20.440Z,6.43
2022-08-01T21:42:03.430Z,7.93
2022-08-01T21:44:47.976Z,6.05
2022-08-01T21:47:50.580Z,8.18
2022-08-01T21:50:59.370Z,6.03
2022-08-01T21:54:24.566Z,5.68
2022-08-01T21:57:55.620Z,7.50
2022-08-01T22:01:13.586Z,5.03
2022-08-01T22:04:18.581Z,5.15
2022-08-01T22:07:22.778Z,7.20
2022-08-01T22:10:26.185Z,7.47
2022-08-01T22:13:27.854Z,7.57
2022-08-01T22:16:31.806Z,4.93
2022-08-01T22:19:45.039Z,5.80
2022-08-01T22:22:52.295Z,6.22
2022-08-01T22:25:55.473Z,7.80
2022-08-01T22:28:58.627Z,5.63
2022-08-01T22:32:01.600Z,7.65
2022-08-01T22:35:06.445Z,7.65
2022-08-01T22:38:09.885Z,6.85
2022-08-01T22:41:16.174Z,5.95
2022-08-01T22:44:27.086Z,7.53
2022-08-01T22:47:50.529Z,5.53
2022-08-01T22:50:59.913Z,6.43
2022-08-01T22:54:04.585Z,5.93
2022-08-01T22:57:14.348Z,7.53
2022-08-01T23:00:16.140Z,5.28
2022-08-01T23:03:24.392Z,5.72
2022-08-01T23:06:35.905Z,6.40
2022-08-01T23:09:52.803Z,7.07
2022-08-01T23:12:56.672Z,5.40
2022-08-01T23:16:00.666Z,4.85
2022-08-01T23:19:02.449Z,5.97
2022-08-01T23:22:04.840Z,5.55
2022-08-01T23:25:10.827Z,8.27
2022-08-01T23:28:13.312Z,8.30
2022-08-01T23:31:16.595Z,5.45
2022-08-01T23:34:20.098Z,7.13
2022-08-01T23:37:22.069Z,8.00
2022-08-01T23:40:25.093Z,7.20
2022-08-01T23:43:26.990Z,6.47
2022-08-01T23:46:28.586Z,8.52
2022-08-01T23:49:30.791Z,7.20
2022-08-01T23:52:34.169Z,6.32
2022-08-01T23:55:38.063Z,5.50
2022-08-01T23:58:39.744Z,6.10
